createdAt,value
2017-12-08T00:00:48.114Z,93.41
2017-12-08T00:03:16.543Z,93.97
2017-12-08T00:05:45.774Z,93.97
2017-12-08T00:08:14.222Z,94.06
2017-12-08T00:10:43.418Z,94.56
2017-12-08T00:13:11.898Z,95.22
2017-12-08T00:15:41.087Z,94.61
2017-12-08T00:18:10.300Z,94.87
2017-12-08T00:20:39.003Z,94.98
2017-12-08T00:23:07.430Z,94.53
2017-12-08T00:25:35.867Z,94.64
2017-12-08T00:28:04.343Z,94.39
2017-12-08T00:30:32.774Z,94.31
2017-12-08T00:33:01.207Z,94.90
2017-12-08T00:35:29.698Z,95.15
2017-12-08T00:37:58.122Z,95.27
2017-12-08T00:40:26.551Z,95.29
2017-12-08T00:42:55.218Z,95.13
2017-12-08T00:45:23.941Z,95.41
2017-12-08T00:47:52.576Z,95.67
2017-12-08T00:50:22.493Z,95.93
2017-12-08T00:52:51.161Z,96.02
2017-12-08T00:55:20.582Z,96.16
2017-12-08T00:57:49.351Z,96.07
2017-12-08T01:00:18.764Z,96.04
2017-12-08T01:02:48.211Z,95.83
2017-12-08T01:05:16.953Z,96.04
2017-12-08T01:07:46.273Z,96.11
2017-12-08T01:10:14.891Z,96.08
2017-12-08T01:12:43.630Z,95.80
2017-12-08T01:15:12.323Z,95.74
2017-12-08T01:17:41.045Z,95.96
2017-12-08T01:20:10.681Z,96.12
2017-12-08T01:22:39.448Z,96.03
2017-12-08T01:25:08.134Z,95.99
2017-12-08T01:27:36.918Z,96.20
2017-12-08T01:30:05.703Z,96.39
2017-12-08T01:32:34.390Z,96.17
2017-12-08T01:35:03.340Z,96.12
2017-12-08T01:40:00.655Z,95.39
2017-12-08T01:42:29.746Z,94.34
2017-12-08T01:44:58.336Z,93.78
2017-12-08T01:47:27.037Z,94.04
2017-12-08T01:49:55.723Z,94.63
2017-12-08T01:52:24.439Z,95.79
2017-12-08T01:54:54.012Z,95.99
2017-12-08T01:57:22.700Z,95.85
2017-12-08T01:59:51.473Z,95.42
2017-12-08T02:02:20.155Z,96.03
2017-12-08T02:04:49.052Z,96.08
2017-12-08T02:07:17.839Z,94.99
2017-12-08T02:09:46.533Z,95.42
2017-12-08T02:12:15.251Z,95.62
2017-12-08T02:14:44.722Z,96.63
2017-12-08T02:17:13.415Z,96.38
2017-12-08T02:19:42.133Z,96.46
2017-12-08T02:22:11.601Z,96.85
2017-12-08T02:24:40.293Z,96.96
2017-12-08T02:27:09.472Z,97.21
2017-12-08T02:29:38.176Z,97.17
2017-12-08T02:32:06.847Z,97.27
2017-12-08T02:34:35.947Z,97.39
2017-12-08T02:37:04.731Z,96.93
2017-12-08T02:39:33.514Z,96.08
2017-12-08T02:42:02.310Z,96.06
2017-12-08T02:44:31.085Z,95.87
2017-12-08T02:46:59.782Z,96.29
2017-12-08T02:49:28.774Z,95.91
2017-12-08T02:51:57.558Z,95.84
2017-12-08T02:54:26.301Z,95.87
2017-12-08T02:56:55.822Z,95.83
2017-12-08T02:59:24.442Z,95.84
2017-12-08T03:01:53.125Z,96.22
2017-12-08T03:04:22.100Z,96.17
2017-12-08T03:06:50.803Z,96.25
2017-12-08T03:09:19.435Z,96.15
2017-12-08T03:11:49.052Z,95.67
2017-12-08T03:14:17.784Z,95.35
2017-12-08T03:16:46.463Z,95.13
2017-12-08T03:19:15.531Z,95.08
2017-12-08T03:21:44.199Z,95.15
2017-12-08T03:24:13.667Z,95.22
2017-12-08T03:26:42.342Z,95.45
2017-12-08T03:29:11.027Z,95.41
2017-12-08T03:31:39.719Z,95.26
2017-12-08T03:34:08.437Z,95.19
2017-12-08T03:36:37.927Z,95.06
2017-12-08T03:39:06.693Z,95.27
2017-12-08T03:41:35.565Z,95.31
2017-12-08T03:44:04.280Z,94.58
2017-12-08T03:46:32.972Z,93.41
2017-12-08T03:49:01.942Z,91.68
2017-12-08T03:51:30.736Z,91.41
2017-12-08T03:53:59.428Z,91.81
2017-12-08T03:56:28.208Z,92.48
2017-12-08T03:58:56.892Z,93.04
2017-12-08T04:01:25.631Z,93.38
2017-12-08T04:03:54.523Z,94.26
2017-12-08T04:06:23.971Z,94.92
2017-12-08T04:08:52.656Z,95.04
2017-12-08T04:11:21.452Z,95.36
2017-12-08T04:13:50.144Z,96.13
2017-12-08T04:16:18.911Z,96.39
2017-12-08T04:18:47.916Z,96.49
2017-12-08T04:21:16.622Z,96.45
2017-12-08T04:23:45.386Z,96.67
2017-12-08T04:26:14.106Z,96.58
2017-12-08T04:28:42.750Z,96.45
2017-12-08T04:31:11.392Z,96.88
2017-12-08T04:33:40.065Z,96.57
2017-12-08T04:36:08.756Z,94.87
2017-12-08T04:38:37.535Z,94.00
2017-12-08T04:41:06.584Z,93.86
2017-12-08T04:43:36.056Z,94.40
2017-12-08T04:46:04.772Z,94.28
2017-12-08T04:48:34.240Z,94.52
2017-12-08T04:51:02.957Z,94.27
2017-12-08T04:53:32.415Z,94.82
2017-12-08T04:56:01.174Z,95.26
2017-12-08T04:58:29.832Z,95.53
2017-12-08T05:00:59.330Z,95.64
2017-12-08T05:03:29.308Z,96.01
2017-12-08T05:05:58.104Z,96.20
2017-12-08T05:08:26.791Z,96.87
2017-12-08T05:10:55.823Z,97.13
2017-12-08T05:13:25.281Z,96.89
2017-12-08T05:15:54.006Z,96.54
2017-12-08T05:18:22.862Z,96.21
2017-12-08T05:20:51.594Z,96.16
2017-12-08T05:23:21.062Z,96.44
2017-12-08T05:28:18.010Z,94.84
2017-12-08T05:30:46.735Z,94.17
2017-12-08T05:33:16.258Z,94.21
2017-12-08T05:35:44.990Z,94.30
2017-12-08T05:38:13.690Z,94.95
2017-12-08T05:40:42.378Z,95.20
2017-12-08T05:43:11.147Z,95.35
2017-12-08T05:45:39.732Z,95.65
2017-12-08T05:48:08.728Z,95.76
2017-12-08T05:50:37.520Z,96.20
2017-12-08T05:53:06.248Z,96.78
2017-12-08T05:55:35.737Z,97.11
2017-12-08T05:58:04.432Z,97.51
2017-12-08T06:00:33.999Z,97.14
2017-12-08T06:03:03.168Z,93.51
2017-12-08T06:05:31.888Z,92.15
2017-12-08T06:08:00.572Z,91.31
2017-12-08T06:10:31.107Z,90.85
2017-12-08T06:12:59.839Z,89.75
2017-12-08T06:15:28.507Z,91.15
2017-12-08T06:17:59.145Z,91.82
2017-12-08T06:20:28.667Z,93.90
2017-12-08T06:22:57.393Z,92.46
2017-12-08T06:25:26.189Z,87.30
2017-12-08T06:27:54.896Z,88.38
2017-12-08T06:30:23.660Z,88.03
2017-12-08T06:32:52.356Z,89.69
2017-12-08T06:35:21.131Z,87.80
2017-12-08T06:37:49.718Z,84.45
2017-12-08T06:40:18.501Z,79.25
2017-12-08T06:42:47.187Z,76.42
2017-12-08T06:45:15.820Z,77.25
2017-12-08T06:47:45.284Z,76.67
2017-12-08T06:50:14.030Z,77.44
2017-12-08T06:52:42.756Z,75.61
2017-12-08T06:55:11.955Z,78.37
2017-12-08T06:57:40.630Z,81.97
2017-12-08T07:00:09.327Z,74.92
2017-12-08T07:02:38.494Z,71.25
2017-12-08T07:05:07.045Z,73.40
2017-12-08T07:07:35.752Z,70.00
2017-12-08T07:10:04.698Z,69.08
2017-12-08T07:12:34.162Z,68.73
2017-12-08T07:15:03.253Z,68.85
2017-12-08T07:17:32.039Z,69.36
2017-12-08T07:20:00.724Z,68.53
2017-12-08T07:22:29.464Z,70.60
2017-12-08T07:24:58.453Z,71.78
2017-12-08T07:27:27.911Z,70.71
2017-12-08T07:29:56.696Z,72.17
2017-12-08T07:32:25.299Z,72.96
2017-12-08T07:34:54.068Z,70.07
2017-12-08T07:37:22.766Z,69.85
2017-12-08T07:39:51.485Z,68.76
2017-12-08T07:42:21.050Z,68.79
2017-12-08T07:44:49.748Z,69.22
2017-12-08T07:47:18.517Z,67.56
2017-12-08T07:49:47.107Z,68.69
2017-12-08T07:52:15.889Z,68.71
2017-12-08T07:54:44.682Z,67.57
2017-12-08T07:57:13.370Z,69.01
2017-12-08T07:59:42.056Z,69.39
2017-12-08T08:02:10.742Z,68.44
2017-12-08T08:04:39.409Z,69.78
2017-12-08T08:07:08.113Z,69.10
2017-12-08T08:09:36.949Z,70.87
2017-12-08T08:12:06.396Z,69.71
2017-12-08T08:14:35.192Z,68.37
2017-12-08T08:17:03.926Z,67.18
2017-12-08T08:19:33.386Z,68.85
2017-12-08T08:22:02.172Z,67.75
2017-12-08T08:24:30.914Z,66.10
2017-12-08T08:26:59.641Z,65.37
2017-12-08T08:29:28.277Z,64.74
2017-12-08T08:31:57.935Z,64.17
2017-12-08T08:34:26.730Z,63.78
2017-12-08T08:36:55.514Z,63.31
2017-12-08T08:39:24.487Z,62.40
2017-12-08T08:41:53.229Z,63.12
2017-12-08T08:44:22.697Z,62.08
2017-12-08T08:46:51.443Z,62.47
2017-12-08T08:49:20.173Z,60.09
2017-12-08T08:51:48.878Z,61.39
2017-12-08T08:54:17.569Z,60.61
2017-12-08T08:56:46.161Z,57.44
2017-12-08T08:59:15.628Z,58.42
2017-12-08T09:01:44.622Z,59.03
2017-12-08T09:04:13.207Z,56.64
2017-12-08T09:06:41.909Z,56.42
2017-12-08T09:09:10.987Z,57.21
2017-12-08T09:11:39.573Z,56.95
2017-12-08T09:14:08.358Z,57.08
2017-12-08T09:16:37.053Z,54.66
2017-12-08T09:19:05.744Z,56.54
2017-12-08T09:21:34.316Z,56.23
2017-12-08T09:24:03.059Z,56.14
2017-12-08T09:26:31.689Z,55.84
2017-12-08T09:29:00.472Z,54.76
2017-12-08T09:31:29.356Z,56.12
2017-12-08T09:33:58.055Z,55.84
2017-12-08T09:36:26.773Z,55.39
2017-12-08T09:38:56.292Z,55.17
2017-12-08T09:41:25.708Z,56.89
2017-12-08T09:43:54.431Z,56.98
2017-12-08T09:46:23.118Z,54.52
2017-12-08T09:48:51.833Z,51.65
2017-12-08T09:51:20.501Z,54.01
2017-12-08T09:53:49.280Z,52.00
2017-12-08T09:56:17.970Z,53.82
2017-12-08T09:58:46.755Z,52.79
2017-12-08T10:01:15.747Z,53.29
2017-12-08T10:03:44.445Z,52.52
2017-12-08T10:06:13.138Z,51.86
2017-12-08T10:08:41.808Z,53.06
2017-12-08T10:11:10.498Z,51.94
2017-12-08T10:13:39.242Z,52.33
2017-12-08T10:16:08.006Z,54.26
2017-12-08T10:18:37.501Z,51.22
2017-12-08T10:21:07.079Z,50.81
2017-12-08T10:23:35.862Z,47.91
2017-12-08T10:26:05.410Z,47.08
2017-12-08T10:28:34.097Z,48.40
2017-12-08T10:31:02.788Z,47.45
2017-12-08T10:33:31.468Z,48.75
2017-12-08T10:36:00.153Z,47.78
2017-12-08T10:38:28.948Z,47.92
2017-12-08T10:40:57.738Z,44.61
2017-12-08T10:43:26.419Z,46.08
2017-12-08T10:45:55.104Z,45.61
2017-12-08T10:48:23.842Z,46.79
2017-12-08T10:50:52.413Z,44.09
2017-12-08T10:53:21.986Z,44.31
2017-12-08T10:55:50.683Z,46.29
2017-12-08T10:58:19.466Z,44.83
2017-12-08T11:00:48.547Z,45.40
2017-12-08T11:03:17.344Z,43.83
2017-12-08T11:05:46.118Z,43.40
2017-12-08T11:08:15.219Z,42.56
2017-12-08T11:10:43.811Z,43.39
2017-12-08T11:13:12.493Z,44.88
2017-12-08T11:15:41.989Z,45.94
2017-12-08T11:18:11.340Z,42.74
2017-12-08T11:20:40.139Z,44.41
2017-12-08T11:23:09.326Z,43.42
2017-12-08T11:25:38.013Z,44.83
2017-12-08T11:28:06.701Z,42.26
2017-12-08T11:30:35.401Z,43.80
2017-12-08T11:33:04.111Z,44.74
2017-12-08T11:35:33.580Z,42.42
2017-12-08T11:38:02.327Z,40.70
2017-12-08T11:40:30.994Z,42.10
2017-12-08T11:43:00.352Z,44.89
2017-12-08T11:45:29.101Z,43.46
2017-12-08T11:47:58.598Z,44.25
2017-12-08T11:50:27.328Z,41.91
2017-12-08T11:52:56.124Z,40.55
2017-12-08T11:55:24.798Z,39.06
2017-12-08T11:57:53.441Z,37.72
2017-12-08T12:00:22.993Z,39.37
2017-12-08T12:02:51.579Z,39.78
2017-12-08T12:05:20.276Z,40.62
2017-12-08T12:07:49.113Z,40.85
2017-12-08T12:10:18.461Z,41.23
2017-12-08T12:12:47.036Z,37.97
2017-12-08T12:15:15.998Z,38.76
2017-12-08T12:17:44.715Z,39.55
2017-12-08T12:20:13.357Z,40.14
2017-12-08T12:22:42.375Z,40.31
2017-12-08T12:25:11.043Z,41.63
2017-12-08T12:27:39.710Z,39.30
2017-12-08T12:30:09.328Z,41.00
2017-12-08T12:32:38.058Z,41.92
2017-12-08T12:35:06.645Z,43.10
2017-12-08T12:37:35.639Z,42.06
2017-12-08T12:40:05.097Z,40.15
2017-12-08T12:42:34.493Z,41.42
2017-12-08T12:45:03.959Z,40.51
2017-12-08T12:47:32.741Z,41.60
2017-12-08T12:50:01.427Z,41.26
2017-12-08T12:52:30.211Z,40.49
2017-12-08T12:54:58.897Z,40.32
2017-12-08T12:57:27.478Z,42.49
2017-12-08T12:59:56.170Z,41.58
2017-12-08T13:02:24.855Z,39.82
2017-12-08T13:04:53.433Z,39.24
2017-12-08T13:07:22.037Z,42.73
2017-12-08T13:09:50.814Z,40.50
2017-12-08T13:12:19.531Z,40.55
2017-12-08T13:14:49.003Z,39.92
2017-12-08T13:17:17.698Z,39.41
2017-12-08T13:19:46.414Z,39.52
2017-12-08T13:22:15.931Z,40.71
2017-12-08T13:24:44.624Z,40.13
2017-12-08T13:27:13.343Z,39.80
2017-12-08T13:29:42.385Z,38.78
2017-12-08T13:32:11.802Z,38.35
2017-12-08T13:34:41.150Z,38.14
2017-12-08T13:37:10.290Z,39.09
2017-12-08T13:39:39.749Z,39.12
2017-12-08T13:42:08.535Z,39.57
2017-12-08T13:44:37.469Z,40.32
2017-12-08T13:47:06.926Z,41.03
2017-12-08T13:49:35.580Z,41.26
2017-12-08T13:52:04.606Z,40.69
2017-12-08T13:54:50.941Z,40.50
2017-12-08T13:57:20.826Z,40.21
2017-12-08T13:59:49.453Z,40.49
2017-12-08T14:02:18.917Z,41.39
2017-12-08T14:04:47.887Z,42.29
2017-12-08T14:07:17.409Z,43.66
2017-12-08T14:09:46.200Z,44.41
2017-12-08T14:12:14.946Z,44.70
2017-12-08T14:14:44.409Z,45.46
2017-12-08T14:17:13.102Z,46.28
2017-12-08T14:19:42.946Z,47.05
2017-12-08T14:22:11.689Z,47.17
2017-12-08T14:24:40.381Z,47.92
2017-12-08T14:27:09.300Z,48.46
2017-12-08T14:29:38.758Z,50.74
2017-12-08T14:32:07.444Z,50.91
2017-12-08T14:34:36.436Z,50.04
2017-12-08T14:37:05.168Z,50.60
2017-12-08T14:39:34.590Z,52.09
2017-12-08T14:42:03.318Z,52.85
2017-12-08T14:44:31.951Z,54.74
2017-12-08T14:47:01.669Z,56.56
2017-12-08T14:49:30.663Z,60.19
2017-12-08T14:51:59.387Z,60.31
2017-12-08T14:54:28.075Z,57.55
2017-12-08T14:56:56.961Z,57.80
2017-12-08T14:59:25.654Z,57.90
2017-12-08T15:01:54.325Z,59.13
2017-12-08T15:04:23.166Z,60.30
2017-12-08T15:06:52.588Z,60.59
2017-12-08T15:09:21.319Z,61.76
2017-12-08T15:11:50.152Z,62.84
2017-12-08T15:14:19.617Z,65.54
2017-12-08T15:16:48.359Z,66.27
2017-12-08T15:19:17.148Z,67.75
2017-12-08T15:21:45.877Z,68.28
2017-12-08T15:24:14.563Z,67.76
2017-12-08T15:26:43.446Z,68.26
2017-12-08T15:29:12.242Z,69.39
2017-12-08T15:31:40.912Z,69.93
2017-12-08T15:34:09.659Z,70.34
2017-12-08T15:36:39.123Z,71.36
2017-12-08T15:39:07.907Z,71.85
2017-12-08T15:41:36.791Z,72.54
2017-12-08T15:44:05.586Z,73.43
2017-12-08T15:46:34.298Z,73.15
2017-12-08T15:49:03.981Z,74.00
2017-12-08T15:51:32.872Z,74.49
2017-12-08T15:54:01.657Z,74.36
2017-12-08T15:56:30.395Z,74.41
2017-12-08T15:58:59.087Z,74.38
2017-12-08T16:01:27.780Z,75.23
2017-12-08T16:03:56.548Z,75.88
2017-12-08T16:06:26.018Z,75.33
2017-12-08T16:08:54.785Z,75.77
2017-12-08T16:11:23.751Z,76.38
2017-12-08T16:13:52.373Z,76.65
2017-12-08T16:16:21.062Z,76.45
2017-12-08T16:18:50.739Z,77.16
2017-12-08T16:21:19.425Z,77.54
2017-12-08T16:23:48.091Z,78.46
2017-12-08T16:26:17.655Z,79.25
2017-12-08T16:28:46.351Z,79.63
2017-12-08T16:31:15.817Z,79.42
2017-12-08T16:33:45.683Z,78.73
2017-12-08T16:36:15.131Z,78.29
2017-12-08T16:38:43.824Z,78.11
2017-12-08T16:41:12.508Z,77.33
2017-12-08T16:43:41.196Z,76.52
2017-12-08T16:46:09.880Z,76.59
2017-12-08T16:48:38.874Z,77.05
2017-12-08T16:51:07.712Z,77.75
2017-12-08T16:53:37.167Z,77.68
2017-12-08T16:56:06.918Z,78.12
2017-12-08T16:58:36.383Z,78.67
2017-12-08T17:01:04.963Z,79.03
2017-12-08T17:03:33.852Z,79.71
2017-12-08T17:06:02.538Z,79.92
2017-12-08T17:08:31.125Z,80.41
2017-12-08T17:10:59.878Z,81.09
2017-12-08T17:13:28.546Z,81.50
2017-12-08T17:15:58.013Z,81.35
2017-12-08T17:18:26.998Z,81.47
2017-12-08T17:20:55.620Z,81.41
2017-12-08T17:23:25.042Z,80.87
2017-12-08T17:25:54.076Z,81.05
2017-12-08T17:28:22.860Z,81.22
2017-12-08T17:30:51.592Z,81.34
2017-12-08T17:33:21.258Z,81.63
2017-12-08T17:35:49.956Z,81.83
2017-12-08T17:38:18.532Z,81.96
2017-12-08T17:40:47.215Z,82.08
2017-12-08T17:43:15.859Z,81.86
2017-12-08T17:45:44.597Z,82.08
2017-12-08T17:48:13.378Z,82.91
2017-12-08T17:50:42.064Z,82.74
2017-12-08T17:53:10.702Z,82.90
2017-12-08T17:55:40.153Z,82.79
2017-12-08T17:58:08.934Z,83.04
2017-12-08T18:00:37.620Z,82.64
2017-12-08T18:03:06.314Z,83.01
2017-12-08T18:05:34.992Z,81.07
2017-12-08T18:08:03.786Z,80.35
2017-12-08T18:10:32.630Z,78.91
2017-12-08T18:13:01.273Z,79.72
2017-12-08T18:15:30.041Z,81.02
2017-12-08T18:17:58.983Z,83.00
2017-12-08T18:20:28.545Z,83.94
2017-12-08T18:22:57.244Z,84.26
2017-12-08T18:25:25.962Z,84.58
2017-12-08T18:27:55.454Z,86.52
2017-12-08T18:30:24.824Z,86.98
2017-12-08T18:32:53.608Z,87.75
2017-12-08T18:35:22.402Z,89.14
2017-12-08T18:37:51.124Z,89.70
2017-12-08T18:40:20.696Z,90.93
2017-12-08T18:42:49.381Z,90.44
2017-12-08T18:45:18.127Z,89.11
2017-12-08T18:47:47.145Z,88.65
2017-12-08T18:50:15.887Z,89.40
2017-12-08T18:52:45.355Z,90.05
2017-12-08T18:55:14.445Z,90.68
2017-12-08T18:57:43.024Z,90.60
2017-12-08T19:00:11.760Z,90.94
2017-12-08T19:02:41.296Z,91.26
2017-12-08T19:05:10.020Z,91.14
2017-12-08T19:07:38.698Z,90.97
2017-12-08T19:10:07.626Z,91.13
2017-12-08T19:12:37.091Z,91.32
2017-12-08T19:15:05.875Z,91.22
2017-12-08T19:17:34.770Z,91.59
2017-12-08T19:20:03.474Z,91.02
2017-12-08T19:22:32.192Z,90.91
2017-12-08T19:25:00.938Z,91.34
2017-12-08T19:27:29.720Z,91.30
2017-12-08T19:29:58.401Z,91.22
2017-12-08T19:32:27.644Z,91.33
2017-12-08T19:34:56.427Z,91.50
2017-12-08T19:37:25.120Z,91.81
2017-12-08T19:39:53.812Z,91.40
2017-12-08T19:42:22.595Z,91.19
2017-12-08T19:44:51.276Z,91.42
2017-12-08T19:47:20.119Z,91.09
2017-12-08T19:49:48.850Z,90.41
2017-12-08T19:52:17.536Z,89.23
2017-12-08T19:54:46.429Z,88.97
2017-12-08T19:57:15.215Z,89.21
2017-12-08T19:59:43.904Z,89.86
2017-12-08T20:02:12.647Z,90.29
2017-12-08T20:04:42.095Z,90.42
2017-12-08T20:07:10.781Z,90.54
2017-12-08T20:09:40.082Z,90.14
2017-12-08T20:19:20.402Z,87.77
2017-12-08T20:21:49.117Z,88.04
2017-12-08T20:24:18.680Z,89.11
2017-12-08T20:26:47.377Z,90.56
2017-12-08T20:29:16.147Z,91.35
2017-12-08T20:31:44.836Z,92.09
2017-12-08T20:34:13.576Z,92.27
2017-12-08T20:36:43.030Z,92.64
2017-12-08T20:39:11.611Z,91.84
2017-12-08T20:41:40.501Z,90.90
2017-12-08T20:44:09.151Z,91.21
2017-12-08T20:46:37.872Z,91.77
2017-12-08T20:49:06.608Z,90.88
2017-12-08T20:51:35.379Z,90.72
2017-12-08T20:54:04.138Z,90.58
2017-12-08T20:56:32.922Z,91.45
2017-12-08T20:59:01.509Z,92.01
2017-12-08T21:01:30.196Z,92.66
2017-12-08T21:03:59.039Z,93.03
2017-12-08T21:06:28.535Z,93.43
2017-12-08T21:08:57.998Z,93.22
2017-12-08T21:11:26.989Z,93.07
2017-12-08T21:13:55.776Z,92.79
2017-12-08T21:16:24.455Z,93.10
2017-12-08T21:18:53.355Z,92.86
2017-12-08T21:21:21.987Z,92.13
2017-12-08T21:23:51.434Z,91.35
2017-12-08T21:26:21.255Z,91.14
2017-12-08T21:28:50.045Z,89.85
2017-12-08T21:31:18.727Z,89.73
2017-12-08T21:33:47.575Z,90.29
2017-12-08T21:36:16.133Z,90.84
2017-12-08T21:38:45.706Z,92.24
2017-12-08T21:41:14.699Z,92.93
2017-12-08T21:43:43.284Z,93.06
2017-12-08T21:46:11.971Z,93.17
2017-12-08T21:48:40.756Z,93.03
2017-12-08T21:51:09.403Z,93.05
2017-12-08T21:53:38.128Z,92.89
2017-12-08T21:56:06.863Z,93.05
2017-12-08T21:58:36.322Z,92.12
2017-12-08T22:01:05.154Z,91.77
2017-12-08T22:03:33.892Z,90.59
2017-12-08T22:06:02.608Z,90.18
2017-12-08T22:08:32.801Z,91.18
2017-12-08T22:11:01.541Z,92.57
2017-12-08T22:13:31.092Z,93.38
2017-12-08T22:15:59.887Z,93.86
2017-12-08T22:18:28.723Z,93.84
2017-12-08T22:20:58.136Z,93.96
2017-12-08T22:23:26.866Z,94.27
2017-12-08T22:25:55.703Z,93.58
2017-12-08T22:28:24.340Z,93.18
2017-12-08T22:30:53.086Z,92.77
2017-12-08T22:33:22.115Z,92.49
2017-12-08T22:35:50.801Z,91.33
2017-12-08T22:38:19.390Z,90.02
2017-12-08T22:40:48.106Z,90.53
2017-12-08T22:43:17.569Z,91.46
2017-12-08T22:45:46.268Z,92.18
2017-12-08T22:48:15.009Z,93.03
2017-12-08T22:50:43.676Z,93.71
2017-12-08T22:53:13.140Z,95.18
2017-12-08T22:55:41.986Z,94.79
2017-12-08T22:58:10.548Z,92.96
2017-12-08T23:00:39.304Z,92.40
2017-12-08T23:03:08.339Z,92.59
2017-12-08T23:05:37.757Z,92.84
2017-12-08T23:08:06.451Z,93.57
2017-12-08T23:10:35.276Z,93.71
2017-12-08T23:13:03.958Z,94.04
2017-12-08T23:15:32.600Z,94.27
2017-12-08T23:18:02.096Z,94.58
2017-12-08T23:20:31.448Z,94.82
2017-12-08T23:23:00.135Z,94.57
2017-12-08T23:25:28.774Z,93.87
2017-12-08T23:27:57.416Z,93.55
2017-12-08T23:30:26.189Z,93.75
2017-12-08T23:32:54.924Z,93.70
2017-12-08T23:35:24.385Z,92.83
2017-12-08T23:37:53.012Z,90.72
2017-12-08T23:40:22.683Z,91.51
2017-12-08T23:42:51.365Z,91.14
2017-12-08T23:45:19.945Z,90.98
2017-12-08T23:47:49.710Z,91.99
2017-12-08T23:50:18.344Z,93.27
2017-12-08T23:52:46.931Z,93.36
2017-12-08T23:55:15.611Z,94.03
2017-12-08T23:57:44.301Z,94.46
